createdAt,value
2023-06-02T00:00:43.645Z,61.14
2023-06-02T00:03:10.489Z,61.58
2023-06-02T00:05:38.694Z,61.65
2023-06-02T00:08:05.648Z,61.38
2023-06-02T00:10:32.347Z,61.46
2023-06-02T00:12:59.033Z,60.97
2023-06-02T00:15:25.912Z,61.34
2023-06-02T00:17:52.600Z,60.90
2023-06-02T00:20:19.279Z,60.84
2023-06-02T00:22:47.615Z,60.69
2023-06-02T00:25:14.319Z,60.95
2023-06-02T00:27:41.140Z,60.95
2023-06-02T00:30:08.916Z,60.79
2023-06-02T00:32:35.600Z,61.25
2023-06-02T00:35:02.495Z,60.40
2023-06-02T00:37:29.218Z,60.66
2023-06-02T00:39:57.253Z,60.40
2023-06-02T00:42:23.953Z,61.06
2023-06-02T00:44:50.700Z,60.21
2023-06-02T00:47:17.328Z,60.14
2023-06-02T00:49:44.117Z,60.00
2023-06-02T00:52:11.741Z,60.34
2023-06-02T00:54:38.324Z,59.89
2023-06-02T00:57:07.233Z,60.69
2023-06-02T00:59:34.028Z,60.37
2023-06-02T01:02:00.655Z,60.04
2023-06-02T01:04:27.685Z,59.91
2023-06-02T01:06:56.334Z,60.19
2023-06-02T01:09:23.141Z,60.33
2023-06-02T01:11:51.024Z,60.46
2023-06-02T01:14:19.209Z,60.59
2023-06-02T01:16:45.927Z,61.07
2023-06-02T01:19:13.358Z,60.50
2023-06-02T01:21:41.961Z,60.27
2023-06-02T01:24:10.064Z,60.01
2023-06-02T01:26:36.704Z,60.19
2023-06-02T01:29:03.875Z,59.35
2023-06-02T01:31:35.035Z,60.09
2023-06-02T01:34:09.672Z,60.13
2023-06-02T01:36:38.700Z,60.44
2023-06-02T01:39:07.504Z,60.05
2023-06-02T01:41:41.368Z,60.60
2023-06-02T01:44:08.753Z,59.67
2023-06-02T01:46:35.513Z,59.76
2023-06-02T01:49:02.231Z,60.25
2023-06-02T01:51:28.798Z,60.86
2023-06-02T01:53:55.598Z,61.05
2023-06-02T01:56:22.248Z,60.19
2023-06-02T01:58:50.248Z,59.77
2023-06-02T02:01:17.008Z,60.74
2023-06-02T02:03:43.831Z,60.63
2023-06-02T02:06:10.524Z,60.42
2023-06-02T02:08:37.291Z,60.35
2023-06-02T02:11:04.164Z,60.85
2023-06-02T02:13:30.767Z,61.18
2023-06-02T02:15:58.884Z,60.91
2023-06-02T02:18:25.503Z,60.78
2023-06-02T02:20:52.528Z,60.81
2023-06-02T02:23:19.207Z,60.44
2023-06-02T02:25:45.812Z,60.32
2023-06-02T02:28:12.549Z,60.91
2023-06-02T02:30:39.139Z,60.27
2023-06-02T02:33:07.221Z,60.62
2023-06-02T02:35:33.883Z,59.77
2023-06-02T02:38:00.495Z,60.21
2023-06-02T02:40:27.099Z,60.44
2023-06-02T02:42:53.715Z,60.72
2023-06-02T02:45:21.142Z,60.80
2023-06-02T02:47:47.827Z,60.75
2023-06-02T02:50:15.861Z,60.45
2023-06-02T02:52:42.835Z,60.54
2023-06-02T02:55:09.601Z,60.30
2023-06-02T02:57:36.357Z,60.51
2023-06-02T03:00:03.541Z,60.77
2023-06-02T03:02:30.217Z,60.34
2023-06-02T03:04:56.894Z,59.99
2023-06-02T03:07:25.045Z,60.03
2023-06-02T03:09:51.541Z,60.36
2023-06-02T03:12:18.213Z,60.57
2023-06-02T03:14:44.765Z,60.75
2023-06-02T03:17:11.884Z,60.01
2023-06-02T03:19:38.534Z,59.26
2023-06-02T03:22:05.632Z,59.71
2023-06-02T03:24:33.998Z,59.65
2023-06-02T03:27:00.637Z,59.20
2023-06-02T03:29:27.313Z,58.61
2023-06-02T03:31:55.484Z,59.24
2023-06-02T03:34:22.332Z,59.47
2023-06-02T03:36:49.132Z,58.65
2023-06-02T03:39:16.184Z,58.25
2023-06-02T03:41:44.498Z,58.22
2023-06-02T03:44:11.260Z,58.30
2023-06-02T03:46:37.983Z,58.28
2023-06-02T03:49:04.607Z,58.73
2023-06-02T03:51:31.357Z,59.04
2023-06-02T03:53:57.973Z,58.69
2023-06-02T03:56:24.583Z,58.78
2023-06-02T03:58:52.822Z,58.69
2023-06-02T04:01:19.319Z,59.11
2023-06-02T04:03:46.235Z,58.68
2023-06-02T04:06:13.566Z,58.58
2023-06-02T04:08:40.668Z,58.23
2023-06-02T04:11:07.496Z,58.51
2023-06-02T04:13:34.436Z,58.54
2023-06-02T04:16:03.065Z,59.26
2023-06-02T04:18:31.128Z,59.08
2023-06-02T04:20:57.713Z,58.13
2023-06-02T04:23:24.426Z,58.71
2023-06-02T04:25:51.054Z,57.81
2023-06-02T04:28:17.679Z,58.22
2023-06-02T04:30:44.362Z,57.45
2023-06-02T04:33:12.334Z,57.86
2023-06-02T04:35:39.131Z,58.20
2023-06-02T04:38:07.288Z,58.23
2023-06-02T04:40:33.921Z,57.59
2023-06-02T04:43:00.532Z,57.65
2023-06-02T04:45:27.216Z,58.06
2023-06-02T04:47:54.158Z,57.32
2023-06-02T04:50:22.274Z,57.69
2023-06-02T04:52:49.037Z,57.50
2023-06-02T04:55:15.708Z,57.27
2023-06-02T04:57:42.961Z,56.96
2023-06-02T05:00:11.090Z,57.27
2023-06-02T05:02:37.735Z,58.19
2023-06-02T05:05:05.042Z,58.07
2023-06-02T05:07:33.087Z,58.09
2023-06-02T05:09:59.697Z,58.19
2023-06-02T05:12:26.384Z,57.92
2023-06-02T05:14:53.022Z,57.40
2023-06-02T05:17:22.137Z,56.82
2023-06-02T05:19:49.188Z,57.89
2023-06-02T05:22:15.843Z,57.14
2023-06-02T05:24:44.873Z,57.14
2023-06-02T05:27:11.624Z,57.54
2023-06-02T05:29:38.230Z,57.29
2023-06-02T05:32:05.816Z,57.15
2023-06-02T05:34:32.601Z,57.41
2023-06-02T05:37:02.576Z,57.20
2023-06-02T05:39:29.114Z,56.24
2023-06-02T05:41:57.173Z,56.16
2023-06-02T05:44:23.747Z,56.25
2023-06-02T05:46:50.437Z,56.60
2023-06-02T05:49:17.090Z,55.75
2023-06-02T05:51:43.815Z,55.31
2023-06-02T05:54:10.909Z,55.68
2023-06-02T05:56:37.555Z,55.92
2023-06-02T05:59:05.643Z,54.88
2023-06-02T06:01:32.679Z,54.52
2023-06-02T06:03:59.434Z,54.33
2023-06-02T06:06:26.126Z,53.76
2023-06-02T06:08:52.901Z,53.91
2023-06-02T06:11:20.182Z,54.93
2023-06-02T06:13:46.838Z,54.63
2023-06-02T06:16:14.922Z,53.34
2023-06-02T06:18:41.576Z,53.70
2023-06-02T06:21:08.325Z,53.63
2023-06-02T06:23:34.912Z,54.17
2023-06-02T06:26:02.012Z,54.61
2023-06-02T06:28:28.973Z,52.77
2023-06-02T06:30:55.854Z,52.30
2023-06-02T06:33:23.840Z,51.79
2023-06-02T06:35:50.570Z,51.70
2023-06-02T06:38:17.196Z,51.18
2023-06-02T06:40:44.668Z,52.42
2023-06-02T06:43:23.767Z,52.04
2023-06-02T06:45:53.762Z,52.68
2023-06-02T06:48:20.545Z,52.75
2023-06-02T06:50:49.585Z,52.31
2023-06-02T06:53:16.263Z,51.34
2023-06-02T06:55:42.854Z,50.99
2023-06-02T06:58:09.704Z,51.12
2023-06-02T07:00:36.317Z,50.00
2023-06-02T07:03:05.901Z,50.21
2023-06-02T07:05:32.617Z,50.10
2023-06-02T07:08:00.996Z,49.38
2023-06-02T07:10:27.754Z,48.39
2023-06-02T07:12:54.660Z,49.65
2023-06-02T07:15:21.331Z,49.45
2023-06-02T07:17:48.175Z,49.37
2023-06-02T07:20:17.701Z,48.28
2023-06-02T07:22:44.369Z,47.14
2023-06-02T07:25:12.673Z,46.70
2023-06-02T07:27:39.263Z,46.91
2023-06-02T07:30:07.336Z,46.40
2023-06-02T07:32:34.065Z,45.77
2023-06-02T07:35:00.739Z,46.57
2023-06-02T07:37:27.562Z,46.18
2023-06-02T07:39:54.401Z,46.65
2023-06-02T07:42:23.176Z,46.53
2023-06-02T07:44:49.871Z,45.08
2023-06-02T07:47:16.605Z,44.92
2023-06-02T07:49:43.507Z,46.42
2023-06-02T07:52:10.485Z,45.20
2023-06-02T07:54:37.123Z,46.08
2023-06-02T07:57:04.110Z,46.32
2023-06-02T07:59:32.292Z,46.42
2023-06-02T08:01:59.457Z,46.11
2023-06-02T08:04:26.158Z,46.01
2023-06-02T08:06:53.820Z,45.70
2023-06-02T08:09:20.458Z,45.46
2023-06-02T08:11:49.293Z,44.19
2023-06-02T08:14:19.185Z,42.16
2023-06-02T08:16:57.633Z,43.45
2023-06-02T08:19:25.175Z,43.46
2023-06-02T08:21:52.385Z,43.80
2023-06-02T08:24:19.564Z,44.29
2023-06-02T08:26:46.137Z,44.58
2023-06-02T08:29:12.763Z,44.65
2023-06-02T08:31:39.727Z,44.43
2023-06-02T08:34:07.871Z,42.97
2023-06-02T08:36:34.621Z,42.01
2023-06-02T08:39:01.480Z,42.71
2023-06-02T08:41:28.697Z,42.16
2023-06-02T08:43:56.610Z,42.80
2023-06-02T08:46:23.422Z,44.29
2023-06-02T08:48:51.672Z,44.09
2023-06-02T08:51:22.761Z,44.26
2023-06-02T08:53:49.506Z,42.89
2023-06-02T08:56:16.715Z,43.72
2023-06-02T08:58:47.512Z,43.30
2023-06-02T09:01:14.375Z,41.25
2023-06-02T09:03:46.963Z,41.49
2023-06-02T09:06:18.906Z,40.46
2023-06-02T09:08:54.725Z,40.11
2023-06-02T09:11:21.332Z,40.77
2023-06-02T09:13:47.991Z,41.19
2023-06-02T09:16:14.746Z,41.18
2023-06-02T09:18:55.244Z,41.82
2023-06-02T09:21:26.583Z,42.33
2023-06-02T09:24:11.288Z,42.35
2023-06-02T09:26:48.639Z,43.59
2023-06-02T09:29:15.360Z,42.30
2023-06-02T09:31:46.843Z,42.84
2023-06-02T09:34:14.186Z,42.38
2023-06-02T09:36:41.086Z,44.15
2023-06-02T09:39:09.277Z,44.16
2023-06-02T09:41:35.956Z,43.79
2023-06-02T09:44:02.639Z,44.20
2023-06-02T09:46:29.455Z,44.49
2023-06-02T09:48:57.757Z,44.63
2023-06-02T09:51:25.812Z,43.69
2023-06-02T09:53:53.101Z,43.41
2023-06-02T09:56:22.153Z,44.13
2023-06-02T09:58:49.410Z,42.64
2023-06-02T10:01:16.609Z,42.42
2023-06-02T10:03:43.722Z,41.85
2023-06-02T10:06:20.611Z,42.79
2023-06-02T10:09:00.206Z,43.38
2023-06-02T10:11:35.735Z,45.37
2023-06-02T10:14:18.226Z,43.73
2023-06-02T10:16:58.178Z,42.18
2023-06-02T10:20:05.657Z,43.05
2023-06-02T10:22:46.594Z,44.12
2023-06-02T10:25:22.151Z,44.89
2023-06-02T10:27:51.306Z,44.65
2023-06-02T10:30:21.060Z,44.00
2023-06-02T10:32:49.348Z,43.74
2023-06-02T10:35:16.886Z,41.80
2023-06-02T10:37:43.541Z,43.98
2023-06-02T10:40:10.643Z,44.09
2023-06-02T10:42:38.680Z,44.21
2023-06-02T10:45:44.854Z,44.31
2023-06-02T10:48:38.407Z,44.38
2023-06-02T10:51:06.144Z,44.45
2023-06-02T10:53:33.474Z,44.21
2023-06-02T10:56:35.140Z,44.53
2023-06-02T10:59:01.849Z,44.89
2023-06-02T11:01:48.945Z,43.79
2023-06-02T11:04:27.116Z,42.78
2023-06-02T11:07:18.059Z,45.61
2023-06-02T11:09:45.439Z,45.51
2023-06-02T11:12:12.478Z,45.83
2023-06-02T11:15:18.208Z,44.24
2023-06-02T11:17:46.313Z,44.33
2023-06-02T11:20:21.097Z,44.98
2023-06-02T11:22:48.198Z,44.90
2023-06-02T11:25:16.575Z,44.63
2023-06-02T11:27:44.766Z,45.16
2023-06-02T11:30:13.798Z,44.40
2023-06-02T11:32:40.648Z,44.62
2023-06-02T11:35:15.806Z,44.83
2023-06-02T11:38:01.486Z,44.76
2023-06-02T11:40:30.983Z,44.89
2023-06-02T11:49:24.852Z,45.78
2023-06-02T11:52:08.209Z,47.02
2023-06-02T11:54:49.614Z,45.91
2023-06-02T11:57:26.046Z,46.50
2023-06-02T12:00:05.943Z,45.54
2023-06-02T12:02:33.193Z,46.34
2023-06-02T12:04:59.953Z,47.23
2023-06-02T12:07:28.516Z,46.17
2023-06-02T12:09:57.172Z,46.24
2023-06-02T12:12:23.937Z,46.34
2023-06-02T12:14:50.715Z,45.90
2023-06-02T12:17:17.922Z,46.05
2023-06-02T12:19:44.660Z,46.21
2023-06-02T12:22:11.943Z,43.47
2023-06-02T12:24:39.133Z,45.26
2023-06-02T12:27:08.349Z,45.95
2023-06-02T12:29:36.068Z,45.43
2023-06-02T12:32:05.365Z,46.40
2023-06-02T12:34:32.415Z,47.16
2023-06-02T12:36:59.119Z,47.78
2023-06-02T12:39:25.892Z,45.60
2023-06-02T12:41:52.592Z,45.86
2023-06-02T12:44:20.735Z,45.77
2023-06-02T12:46:47.860Z,45.83
2023-06-02T12:49:14.799Z,45.73
2023-06-02T12:52:23.170Z,45.27
2023-06-02T12:54:49.831Z,45.87
2023-06-02T12:57:16.465Z,46.00
2023-06-02T12:59:44.587Z,45.78
2023-06-02T13:02:11.641Z,45.42
2023-06-02T13:04:38.553Z,45.55
2023-06-02T13:07:07.147Z,45.42
2023-06-02T13:09:33.784Z,45.71
2023-06-02T13:12:00.529Z,44.55
2023-06-02T13:14:27.155Z,44.57
2023-06-02T13:16:55.283Z,44.58
2023-06-02T13:19:22.444Z,45.23
2023-06-02T13:21:49.653Z,46.14
2023-06-02T13:24:16.319Z,45.46
2023-06-02T13:26:43.287Z,46.17
2023-06-02T13:29:09.922Z,46.13
2023-06-02T13:31:36.654Z,45.65
2023-06-02T13:34:05.265Z,44.83
2023-06-02T13:36:34.976Z,44.89
2023-06-02T13:39:01.715Z,44.72
2023-06-02T13:41:31.566Z,45.19
2023-06-02T13:43:58.714Z,45.17
2023-06-02T13:46:26.330Z,44.88
2023-06-02T13:48:57.395Z,45.59
2023-06-02T13:51:25.524Z,44.67
2023-06-02T13:53:52.320Z,45.20
2023-06-02T13:57:15.139Z,45.83
2023-06-02T13:59:22.133Z,44.10
2023-06-02T14:01:49.040Z,43.71
2023-06-02T14:04:15.885Z,43.97
2023-06-02T14:06:43.774Z,45.60
2023-06-02T14:09:10.378Z,45.09
2023-06-02T14:11:37.106Z,44.79
2023-06-02T14:14:04.165Z,44.39
2023-06-02T14:16:30.840Z,42.85
2023-06-02T14:18:57.951Z,43.57
2023-06-02T14:21:26.100Z,43.52
2023-06-02T14:23:54.205Z,45.60
2023-06-02T14:26:21.027Z,45.99
2023-06-02T14:28:47.962Z,45.77
2023-06-02T14:31:14.709Z,45.43
2023-06-02T14:33:41.750Z,44.95
2023-06-02T14:36:09.328Z,45.27
2023-06-02T14:38:35.929Z,45.25
2023-06-02T14:41:04.337Z,44.03
2023-06-02T14:43:30.928Z,42.67
2023-06-02T14:45:57.549Z,43.81
2023-06-02T14:48:24.169Z,44.58
2023-06-02T14:50:50.797Z,45.07
2023-06-02T14:53:17.390Z,44.09
2023-06-02T14:55:44.128Z,43.93
2023-06-02T14:58:12.100Z,44.53
2023-06-02T15:00:38.999Z,44.14
2023-06-02T15:03:05.717Z,44.97
2023-06-02T15:05:32.365Z,45.16
2023-06-02T15:07:59.017Z,45.35
2023-06-02T15:10:25.635Z,45.51
2023-06-02T15:12:52.263Z,45.39
2023-06-02T15:15:20.376Z,44.30
2023-06-02T15:17:47.097Z,44.71
2023-06-02T15:20:13.787Z,44.44
2023-06-02T15:22:40.379Z,44.06
2023-06-02T15:25:07.711Z,44.19
2023-06-02T15:27:34.720Z,44.37
2023-06-02T15:30:01.479Z,44.63
2023-06-02T15:32:29.627Z,44.01
2023-06-02T15:34:56.360Z,44.72
2023-06-02T15:37:23.436Z,45.43
2023-06-02T15:39:50.156Z,45.19
2023-06-02T15:42:16.755Z,44.29
2023-06-02T15:44:43.533Z,43.65
2023-06-02T15:47:10.301Z,43.14
2023-06-02T15:49:38.355Z,44.13
2023-06-02T15:52:06.232Z,43.98
2023-06-02T15:54:32.921Z,44.66
2023-06-02T15:56:59.649Z,45.44
2023-06-02T15:59:26.255Z,44.95
2023-06-02T16:01:53.350Z,45.22
2023-06-02T16:04:20.193Z,44.76
2023-06-02T16:06:48.214Z,44.76
2023-06-02T16:09:15.374Z,44.93
2023-06-02T16:11:41.979Z,45.58
2023-06-02T16:14:08.853Z,45.33
2023-06-02T16:16:35.780Z,43.97
2023-06-02T16:19:02.405Z,43.89
2023-06-02T16:21:29.139Z,43.46
2023-06-02T16:23:57.259Z,42.92
2023-06-02T16:26:24.151Z,43.39
2023-06-02T16:28:51.143Z,43.95
2023-06-02T16:31:20.672Z,43.67
2023-06-02T16:33:47.953Z,42.34
2023-06-02T16:36:14.631Z,42.68
2023-06-02T16:38:41.275Z,42.89
2023-06-02T16:41:09.512Z,42.59
2023-06-02T16:43:36.456Z,43.23
2023-06-02T16:46:06.405Z,43.46
2023-06-02T16:48:35.971Z,42.89
2023-06-02T16:51:03.088Z,43.14
2023-06-02T16:53:44.845Z,43.08
2023-06-02T16:59:43.339Z,42.76
2023-06-02T17:05:22.220Z,43.27
2023-06-02T17:11:24.173Z,43.12
2023-06-02T17:14:34.305Z,42.41
2023-06-02T17:17:35.541Z,42.38
2023-06-02T17:23:27.011Z,42.66
2023-06-02T17:25:55.683Z,42.58
2023-06-02T17:41:20.205Z,43.83
2023-06-02T17:44:26.462Z,44.08
2023-06-02T17:47:28.904Z,43.09
2023-06-02T17:50:34.541Z,42.76
2023-06-02T17:53:01.440Z,43.03
2023-06-02T17:55:28.220Z,43.02
2023-06-02T17:57:57.728Z,42.13
2023-06-02T18:00:36.947Z,42.21
2023-06-02T18:03:04.089Z,42.41
2023-06-02T18:05:30.864Z,42.98
2023-06-02T18:07:57.493Z,42.55
2023-06-02T18:10:24.570Z,42.66
2023-06-02T18:12:53.280Z,42.75
2023-06-02T18:15:21.660Z,42.86
2023-06-02T18:18:01.539Z,42.82
2023-06-02T18:20:42.610Z,42.66
2023-06-02T18:23:28.948Z,42.70
2023-06-02T18:25:55.706Z,42.58
2023-06-02T18:28:26.869Z,42.61
2023-06-02T18:30:55.361Z,43.13
2023-06-02T18:33:50.642Z,42.83
2023-06-02T18:36:17.676Z,43.19
2023-06-02T18:38:47.221Z,43.71
2023-06-02T18:41:17.524Z,43.59
2023-06-02T18:43:55.882Z,44.09
2023-06-02T18:46:59.918Z,44.25
2023-06-02T18:49:50.347Z,44.64
2023-06-02T18:52:33.574Z,44.91
2023-06-02T18:55:00.407Z,45.32
2023-06-02T18:57:27.341Z,45.54
2023-06-02T18:59:53.990Z,45.29
2023-06-02T19:02:20.792Z,45.71
2023-06-02T19:04:49.010Z,45.80
2023-06-02T19:07:15.707Z,45.79
2023-06-02T19:09:42.622Z,45.54
2023-06-02T19:16:17.206Z,45.94
2023-06-02T19:19:03.611Z,46.29
2023-06-02T19:21:39.311Z,46.07
2023-06-02T19:27:31.332Z,46.81
2023-06-02T19:33:14.644Z,46.23
2023-06-02T19:35:58.595Z,46.30
2023-06-02T19:38:26.851Z,46.38
2023-06-02T19:41:10.041Z,46.62
2023-06-02T19:44:24.756Z,46.83
2023-06-02T19:50:26.079Z,46.79
2023-06-02T19:53:10.590Z,47.63
2023-06-02T19:55:38.769Z,47.44
2023-06-02T19:58:11.402Z,47.62
2023-06-02T20:00:58.177Z,48.01
2023-06-02T20:03:25.092Z,47.91
2023-06-02T20:05:51.817Z,48.01
2023-06-02T20:08:18.612Z,48.50
2023-06-02T20:10:46.711Z,48.87
2023-06-02T20:13:15.842Z,48.80
2023-06-02T20:16:30.174Z,49.37
2023-06-02T20:19:27.064Z,49.36
2023-06-02T20:21:51.879Z,50.10
2023-06-02T20:27:23.552Z,49.89
2023-06-02T20:29:52.364Z,50.24
2023-06-02T20:36:15.385Z,50.88
2023-06-02T20:44:54.829Z,51.68
2023-06-02T20:47:21.538Z,51.53
2023-06-02T20:49:48.166Z,51.98
2023-06-02T20:52:14.893Z,51.79
2023-06-02T20:54:41.845Z,51.56
2023-06-02T20:57:08.467Z,51.92
2023-06-02T20:59:35.308Z,52.01
2023-06-02T21:02:03.743Z,52.43
2023-06-02T21:04:30.488Z,52.80
2023-06-02T21:06:57.157Z,52.74
2023-06-02T21:09:24.312Z,53.40
2023-06-02T21:11:51.029Z,53.65
2023-06-02T21:14:17.628Z,53.64
2023-06-02T21:16:44.475Z,54.26
2023-06-02T21:19:12.544Z,54.61
2023-06-02T21:21:39.211Z,54.78
2023-06-02T21:24:06.159Z,54.54
2023-06-02T21:26:32.882Z,54.82
2023-06-02T21:28:59.463Z,54.80
2023-06-02T21:31:26.356Z,55.28
2023-06-02T21:33:52.979Z,55.51
2023-06-02T21:36:21.084Z,55.45
2023-06-02T21:38:47.788Z,55.79
2023-06-02T21:41:14.436Z,56.07
2023-06-02T21:43:41.158Z,56.52
2023-06-02T21:46:07.816Z,56.58
2023-06-02T21:48:34.566Z,56.34
2023-06-02T21:51:01.173Z,56.99
2023-06-02T21:53:29.198Z,57.18
2023-06-02T21:55:56.085Z,56.98
2023-06-02T21:58:22.756Z,57.38
2023-06-02T22:00:49.575Z,57.37
2023-06-02T22:03:16.349Z,57.84
2023-06-02T22:05:43.097Z,58.14
2023-06-02T22:08:09.765Z,57.64
2023-06-02T22:10:37.862Z,58.23
2023-06-02T22:13:04.522Z,58.78
2023-06-02T22:15:31.228Z,58.11
2023-06-02T22:17:57.956Z,59.17
2023-06-02T22:20:24.702Z,58.58
2023-06-02T22:22:51.289Z,58.92
2023-06-02T22:25:17.944Z,58.90
2023-06-02T22:27:45.930Z,58.48
2023-06-02T22:30:13.345Z,58.79
2023-06-02T22:32:40.008Z,59.03
2023-06-02T22:35:07.350Z,59.70
2023-06-02T22:37:34.054Z,59.37
2023-06-02T22:40:00.772Z,59.36
2023-06-02T22:42:27.442Z,59.89
2023-06-02T22:44:55.389Z,59.51
2023-06-02T22:47:22.284Z,59.24
2023-06-02T22:49:48.881Z,59.96
2023-06-02T22:52:15.498Z,59.87
2023-06-02T22:54:42.116Z,60.02
2023-06-02T22:57:08.704Z,60.69
2023-06-02T22:59:35.739Z,59.96
2023-06-02T23:02:03.844Z,59.96
2023-06-02T23:04:30.507Z,60.93
2023-06-02T23:06:57.633Z,60.74
2023-06-02T23:09:24.257Z,60.56
2023-06-02T23:11:50.865Z,60.88
2023-06-02T23:14:17.756Z,61.26
2023-06-02T23:16:44.355Z,60.50
2023-06-02T23:19:12.321Z,61.43
2023-06-02T23:21:39.071Z,61.62
2023-06-02T23:24:07.534Z,61.95
2023-06-02T23:26:34.253Z,61.40
2023-06-02T23:29:00.862Z,61.44
2023-06-02T23:31:27.457Z,61.93
2023-06-02T23:33:54.073Z,61.84
2023-06-02T23:36:22.200Z,61.90
2023-06-02T23:38:48.831Z,62.20
2023-06-02T23:41:15.424Z,62.88
2023-06-02T23:43:42.361Z,62.22
2023-06-02T23:46:09.022Z,62.80
2023-06-02T23:48:35.631Z,62.85
2023-06-02T23:51:02.810Z,63.45
2023-06-02T23:53:31.113Z,63.57
2023-06-02T23:55:57.697Z,64.00
2023-06-02T23:58:24.353Z,63.75
